createdAt,value
2022-09-26T00:01:43.742Z,24.10
2022-09-26T00:04:23.386Z,23.98
2022-09-26T00:06:53.365Z,25.08
2022-09-26T00:09:22.500Z,25.00
2022-09-26T00:11:50.933Z,24.15
2022-09-26T00:14:22.604Z,24.60
2022-09-26T00:16:50.949Z,23.70
2022-09-26T00:19:20.785Z,25.15
2022-09-26T00:21:49.402Z,24.85
2022-09-26T00:24:17.489Z,24.80
2022-09-26T00:26:46.357Z,25.52
2022-09-26T00:29:15.278Z,25.30
2022-09-26T00:31:45.590Z,26.15
2022-09-26T00:34:19.810Z,24.85
2022-09-26T00:36:51.053Z,23.85
2022-09-26T00:39:19.577Z,24.65
2022-09-26T00:41:47.688Z,25.58
2022-09-26T00:44:43.321Z,25.73
2022-09-26T00:47:38.196Z,25.83
2022-09-26T00:50:15.087Z,25.73
2022-09-26T00:52:47.559Z,25.95
2022-09-26T00:55:18.830Z,27.55
2022-09-26T00:57:51.614Z,26.20
2022-09-26T01:00:20.042Z,27.27
2022-09-26T01:02:49.492Z,26.67
2022-09-26T01:05:21.171Z,26.65
2022-09-26T01:07:51.835Z,26.58
2022-09-26T01:10:20.134Z,27.30
2022-09-26T01:12:48.466Z,25.75
2022-09-26T01:15:16.493Z,26.35
2022-09-26T01:17:46.501Z,25.60
2022-09-26T01:20:42.320Z,27.98
2022-09-26T01:23:29.289Z,26.42
2022-09-26T01:26:27.665Z,28.33
2022-09-26T01:29:18.094Z,28.08
2022-09-26T01:32:10.476Z,27.52
2022-09-26T01:34:46.410Z,27.35
2022-09-26T01:37:24.059Z,27.73
2022-09-26T01:40:18.278Z,27.35
2022-09-26T01:43:01.193Z,28.08
2022-09-26T01:45:36.723Z,28.42
2022-09-26T01:48:10.802Z,27.05
2022-09-26T01:50:44.220Z,28.70
2022-09-26T01:53:18.972Z,28.50
2022-09-26T01:55:54.399Z,27.58
2022-09-26T01:58:27.031Z,28.40
2022-09-26T02:00:58.104Z,27.08
2022-09-26T02:03:33.708Z,28.17
2022-09-26T02:06:08.890Z,28.58
2022-09-26T02:08:41.700Z,28.65
2022-09-26T02:11:14.039Z,27.65
2022-09-26T02:13:51.873Z,26.30
2022-09-26T02:16:25.010Z,27.67
2022-09-26T02:18:59.197Z,27.77
2022-09-26T02:21:27.384Z,27.80
2022-09-26T02:23:58.501Z,27.35
2022-09-26T02:26:28.074Z,27.58
2022-09-26T02:28:58.262Z,26.73
2022-09-26T02:31:28.918Z,27.27
2022-09-26T02:33:58.371Z,28.45
2022-09-26T02:36:33.716Z,26.98
2022-09-26T02:39:03.486Z,26.27
2022-09-26T02:41:47.158Z,25.58
2022-09-26T02:44:47.028Z,25.27
2022-09-26T02:47:40.456Z,26.70
2022-09-26T02:50:40.216Z,25.83
2022-09-26T02:53:21.825Z,25.07
2022-09-26T02:56:03.788Z,24.45
2022-09-26T02:58:42.861Z,25.80
2022-09-26T03:01:18.381Z,23.70
2022-09-26T03:03:52.996Z,25.55
2022-09-26T03:06:40.493Z,25.67
2022-09-26T03:09:11.524Z,25.37
2022-09-26T03:11:41.427Z,25.13
2022-09-26T03:14:10.372Z,25.17
2022-09-26T03:16:45.121Z,24.60
2022-09-26T03:19:18.025Z,23.55
2022-09-26T03:21:48.128Z,25.70
2022-09-26T03:24:17.453Z,25.30
2022-09-26T03:26:47.236Z,24.60
2022-09-26T03:29:15.742Z,24.83
2022-09-26T03:31:45.185Z,25.27
2022-09-26T03:34:16.425Z,25.97
2022-09-26T03:36:46.940Z,24.65
2022-09-26T03:39:15.867Z,25.23
2022-09-26T03:42:14.300Z,25.90
2022-09-26T03:44:44.108Z,24.73
2022-09-26T03:47:17.286Z,25.63
2022-09-26T03:49:49.566Z,25.38
2022-09-26T03:52:19.118Z,26.85
2022-09-26T03:54:50.354Z,25.73
2022-09-26T03:57:19.369Z,25.65
2022-09-26T04:00:14.263Z,24.60
2022-09-26T04:02:46.469Z,25.58
2022-09-26T04:05:43.099Z,24.58
2022-09-26T04:08:13.943Z,24.23
2022-09-26T04:10:42.591Z,23.75
2022-09-26T04:13:10.624Z,24.83
2022-09-26T04:15:38.619Z,25.70
2022-09-26T04:18:12.499Z,24.17
2022-09-26T04:20:40.770Z,25.83
2022-09-26T04:23:08.800Z,24.92
2022-09-26T04:25:39.541Z,23.92
2022-09-26T04:28:10.497Z,24.23
2022-09-26T04:30:40.126Z,24.50
2022-09-26T04:33:08.829Z,24.67
2022-09-26T04:35:36.913Z,24.67
2022-09-26T04:38:05.716Z,25.30
2022-09-26T04:40:38.316Z,25.00
2022-09-26T04:43:12.750Z,24.10
2022-09-26T04:45:42.593Z,25.17
2022-09-26T04:48:11.248Z,23.95
2022-09-26T04:50:56.978Z,23.95
2022-09-26T04:53:26.081Z,25.00
2022-09-26T04:56:06.869Z,24.23
2022-09-26T04:58:37.976Z,24.58
2022-09-26T05:01:08.003Z,24.67
2022-09-26T05:03:53.462Z,23.63
2022-09-26T05:06:25.170Z,22.80
2022-09-26T05:08:54.881Z,23.40
2022-09-26T05:11:38.947Z,23.23
2022-09-26T05:14:11.077Z,22.77
2022-09-26T05:16:40.261Z,22.65
2022-09-26T05:19:12.184Z,22.88
2022-09-26T05:21:48.925Z,21.35
2022-09-26T05:24:34.599Z,22.30
2022-09-26T05:27:06.431Z,21.25
2022-09-26T05:29:36.067Z,21.52
2022-09-26T05:32:07.339Z,21.38
2022-09-26T05:34:39.137Z,23.08
2022-09-26T05:37:09.111Z,20.98
2022-09-26T05:40:00.494Z,20.33
2022-09-26T05:42:30.136Z,20.65
2022-09-26T05:45:03.316Z,20.23
2022-09-26T05:47:36.341Z,20.10
2022-09-26T05:50:09.971Z,21.92
2022-09-26T05:52:40.409Z,19.92
2022-09-26T05:55:11.994Z,19.73
2022-09-26T05:57:59.642Z,20.90
2022-09-26T06:00:45.195Z,19.48
2022-09-26T06:03:13.391Z,19.88
2022-09-26T06:05:54.757Z,20.65
2022-09-26T06:08:33.562Z,20.58
2022-09-26T06:11:30.875Z,19.00
2022-09-26T06:14:01.124Z,18.30
2022-09-26T06:16:31.040Z,19.67
2022-09-26T06:19:00.042Z,20.02
2022-09-26T06:21:28.162Z,21.73
2022-09-26T06:24:02.935Z,21.05
2022-09-26T06:26:32.581Z,21.15
2022-09-26T06:29:00.968Z,22.77
2022-09-26T06:31:35.910Z,21.15
2022-09-26T06:34:13.323Z,22.95
2022-09-26T06:37:00.450Z,22.98
2022-09-26T06:39:35.628Z,22.27
2022-09-26T06:42:05.790Z,22.80
2022-09-26T06:44:49.759Z,23.02
2022-09-26T06:47:30.165Z,23.17
2022-09-26T06:50:27.761Z,22.95
2022-09-26T06:53:00.973Z,23.05
2022-09-26T06:55:35.842Z,22.42
2022-09-26T06:58:04.102Z,21.58
2022-09-26T07:00:41.096Z,21.58
2022-09-26T07:03:27.137Z,22.83
2022-09-26T07:06:07.557Z,23.38
2022-09-26T07:09:00.896Z,23.35
2022-09-26T07:12:12.943Z,23.38
2022-09-26T07:14:34.901Z,23.42
2022-09-26T07:17:14.367Z,24.08
2022-09-26T07:20:02.951Z,24.17
2022-09-26T07:22:57.072Z,26.23
2022-09-26T07:25:25.208Z,26.17
2022-09-26T07:27:54.304Z,26.80
2022-09-26T07:30:30.226Z,26.90
2022-09-26T07:33:05.636Z,26.02
2022-09-26T07:35:38.982Z,27.10
2022-09-26T07:38:07.088Z,28.15
2022-09-26T07:40:35.846Z,26.88
2022-09-26T07:43:21.317Z,26.40
2022-09-26T07:46:12.487Z,25.80
2022-09-26T07:49:01.974Z,27.25
2022-09-26T07:51:34.298Z,26.35
2022-09-26T07:54:06.260Z,26.17
2022-09-26T07:56:55.242Z,25.55
2022-09-26T07:59:55.313Z,27.88
2022-09-26T08:02:45.340Z,26.85
2022-09-26T08:05:20.396Z,28.13
2022-09-26T08:07:51.148Z,34.38
2022-09-26T08:10:45.120Z,34.97
2022-09-26T08:13:34.004Z,28.48
2022-09-26T08:16:19.682Z,27.00
2022-09-26T08:18:48.662Z,27.90
2022-09-26T08:21:17.996Z,26.52
2022-09-26T08:23:47.872Z,27.45
2022-09-26T08:26:44.105Z,28.55
2022-09-26T08:29:25.879Z,56.67
2022-09-26T08:31:56.027Z,33.33
2022-09-26T08:34:25.586Z,32.80
2022-09-26T08:37:12.692Z,28.38
2022-09-26T08:40:02.325Z,30.77
2022-09-26T08:43:02.730Z,31.15
2022-09-26T08:46:19.351Z,29.45
2022-09-26T08:49:47.658Z,31.48
2022-09-26T08:52:29.317Z,31.02
2022-09-26T08:55:00.471Z,30.98
2022-09-26T08:57:35.688Z,33.53
2022-09-26T09:00:15.360Z,33.38
2022-09-26T09:02:56.728Z,30.45
2022-09-26T09:05:28.353Z,31.40
2022-09-26T09:07:59.551Z,31.40
2022-09-26T09:10:43.078Z,32.13
2022-09-26T09:13:47.222Z,31.90
2022-09-26T09:16:51.500Z,32.75
2022-09-26T09:19:54.937Z,32.60
2022-09-26T09:23:02.440Z,31.13
2022-09-26T09:25:43.543Z,32.13
2022-09-26T09:28:26.002Z,31.98
2022-09-26T09:31:00.640Z,31.65
2022-09-26T09:33:38.253Z,28.10
2022-09-26T09:36:30.220Z,28.85
2022-09-26T09:39:25.615Z,27.00
2022-09-26T09:42:06.848Z,26.67
2022-09-26T09:44:46.792Z,26.85
2022-09-26T09:47:18.478Z,24.45
2022-09-26T09:49:49.347Z,25.00
2022-09-26T09:52:43.393Z,24.63
2022-09-26T09:55:28.788Z,23.63
2022-09-26T09:58:23.191Z,22.73
2022-09-26T10:01:01.724Z,23.25
2022-09-26T10:03:44.136Z,22.25
2022-09-26T10:06:44.630Z,21.92
2022-09-26T10:09:35.430Z,20.83
2022-09-26T10:12:30.716Z,21.20
2022-09-26T10:15:20.647Z,20.33
2022-09-26T10:18:26.113Z,21.80
2022-09-26T10:21:12.144Z,19.83
2022-09-26T10:23:44.814Z,17.10
2022-09-26T10:26:31.170Z,16.73
2022-09-26T10:29:01.218Z,14.95
2022-09-26T10:31:41.353Z,16.15
2022-09-26T10:34:25.695Z,16.42
2022-09-26T10:36:55.882Z,16.23
2022-09-26T10:39:43.699Z,15.52
2022-09-26T10:42:20.062Z,16.25
2022-09-26T10:44:50.883Z,14.93
2022-09-26T10:47:25.870Z,14.38
2022-09-26T10:50:24.889Z,13.50
2022-09-26T10:53:24.119Z,12.95
2022-09-26T10:55:56.527Z,13.70
2022-09-26T10:58:29.797Z,14.85
2022-09-26T11:01:04.683Z,14.60
2022-09-26T11:03:45.024Z,14.93
2022-09-26T11:06:33.065Z,14.27
2022-09-26T11:09:28.467Z,13.43
2022-09-26T11:12:25.338Z,13.38
2022-09-26T11:14:59.577Z,12.65
2022-09-26T11:17:47.515Z,13.32
2022-09-26T11:20:25.570Z,11.90
2022-09-26T11:23:03.149Z,11.25
2022-09-26T11:25:41.167Z,10.25
2022-09-26T11:28:15.369Z,9.48
2022-09-26T11:31:08.960Z,9.65
2022-09-26T11:33:45.925Z,8.73
2022-09-26T11:36:49.334Z,8.60
2022-09-26T11:39:33.501Z,8.70
2022-09-26T11:42:24.836Z,9.52
2022-09-26T11:44:58.609Z,9.00
2022-09-26T11:48:13.595Z,9.15
2022-09-26T11:51:17.636Z,8.63
2022-09-26T11:54:23.581Z,9.50
2022-09-26T11:57:01.108Z,9.73
2022-09-26T11:59:53.752Z,10.32
2022-09-26T12:02:51.550Z,11.15
2022-09-26T12:05:27.647Z,11.18
2022-09-26T12:08:11.435Z,10.57
2022-09-26T12:10:49.140Z,11.52
2022-09-26T12:13:34.302Z,11.40
2022-09-26T12:16:14.565Z,11.43
2022-09-26T12:18:54.444Z,12.80
2022-09-26T12:21:39.883Z,12.50
2022-09-26T12:24:17.401Z,12.35
2022-09-26T12:26:53.597Z,12.35
2022-09-26T12:29:38.526Z,13.05
2022-09-26T12:32:25.987Z,11.88
2022-09-26T12:35:15.038Z,11.93
2022-09-26T12:37:59.943Z,11.68
2022-09-26T12:40:36.256Z,12.02
2022-09-26T12:43:26.164Z,11.65
2022-09-26T12:46:13.455Z,10.98
2022-09-26T12:49:06.799Z,10.85
2022-09-26T12:51:43.147Z,10.55
2022-09-26T12:54:21.557Z,11.73
2022-09-26T12:56:54.810Z,10.57
2022-09-26T12:59:51.755Z,10.70
2022-09-26T13:02:51.204Z,9.48
2022-09-26T13:05:43.633Z,9.23
2022-09-26T13:08:17.650Z,11.02
2022-09-26T13:10:56.371Z,10.45
2022-09-26T13:13:54.236Z,9.40
2022-09-26T13:16:31.810Z,9.32
2022-09-26T13:19:07.220Z,9.70
2022-09-26T13:21:45.575Z,9.27
2022-09-26T13:24:19.549Z,9.15
2022-09-26T13:26:53.002Z,9.30
2022-09-26T13:29:26.478Z,9.50
2022-09-26T13:32:13.536Z,8.25
2022-09-26T13:34:47.869Z,9.57
2022-09-26T13:37:28.746Z,8.90
2022-09-26T13:40:06.791Z,8.88
2022-09-26T13:42:43.533Z,7.80
2022-09-26T13:45:26.748Z,7.20
2022-09-26T13:48:02.724Z,7.82
2022-09-26T13:50:41.225Z,8.90
2022-09-26T13:53:21.338Z,8.18
2022-09-26T13:56:22.865Z,8.27
2022-09-26T13:59:03.826Z,7.90
2022-09-26T14:01:33.462Z,13.18
2022-09-26T14:04:21.448Z,14.07
2022-09-26T14:07:28.218Z,9.02
2022-09-26T14:10:08.936Z,8.90
2022-09-26T14:13:06.894Z,9.60
2022-09-26T14:16:03.594Z,8.20
2022-09-26T14:18:48.708Z,8.52
2022-09-26T14:21:34.171Z,8.55
2022-09-26T14:24:31.778Z,8.68
2022-09-26T14:27:20.449Z,9.00
2022-09-26T14:29:53.042Z,9.70
2022-09-26T14:32:24.588Z,9.52
2022-09-26T14:34:57.483Z,8.88
2022-09-26T14:37:31.653Z,9.00
2022-09-26T14:40:16.833Z,9.38
2022-09-26T14:42:56.715Z,9.30
2022-09-26T14:45:27.850Z,8.90
2022-09-26T14:48:13.811Z,9.63
2022-09-26T14:50:47.904Z,9.88
2022-09-26T14:53:23.139Z,10.23
2022-09-26T14:55:59.214Z,9.93
2022-09-26T14:58:49.857Z,11.02
2022-09-26T15:01:26.514Z,9.82
2022-09-26T15:04:01.618Z,10.07
2022-09-26T15:06:31.687Z,10.50
2022-09-26T15:09:09.039Z,10.38
2022-09-26T15:11:44.595Z,9.95
2022-09-26T15:14:25.908Z,10.23
2022-09-26T15:16:56.808Z,9.70
2022-09-26T15:19:28.709Z,10.02
2022-09-26T15:22:01.762Z,10.80
2022-09-26T15:24:32.945Z,10.35
2022-09-26T15:27:08.568Z,10.45
2022-09-26T15:29:44.142Z,10.85
2022-09-26T15:32:19.455Z,10.80
2022-09-26T15:34:48.188Z,10.55
2022-09-26T15:37:20.661Z,10.80
2022-09-26T15:39:48.850Z,9.93
2022-09-26T15:42:46.325Z,10.25
2022-09-26T15:45:27.204Z,9.45
2022-09-26T15:47:56.526Z,10.20
2022-09-26T15:50:29.036Z,9.85
2022-09-26T15:53:03.174Z,10.93
2022-09-26T15:55:35.571Z,9.45
2022-09-26T15:58:06.893Z,10.15
2022-09-26T16:00:42.036Z,10.05
2022-09-26T16:03:35.728Z,9.70
2022-09-26T16:06:09.889Z,10.27
2022-09-26T16:08:42.641Z,9.90
2022-09-26T16:11:11.162Z,9.35
2022-09-26T16:13:46.327Z,10.15
2022-09-26T16:16:18.864Z,10.20
2022-09-26T16:18:53.214Z,11.23
2022-09-26T16:21:23.455Z,10.25
2022-09-26T16:23:53.387Z,10.80
2022-09-26T16:26:24.266Z,10.90
2022-09-26T16:28:55.021Z,11.40
2022-09-26T16:31:28.814Z,12.23
2022-09-26T16:33:58.918Z,13.85
2022-09-26T16:36:28.968Z,13.45
2022-09-26T16:39:01.956Z,11.57
2022-09-26T16:42:00.121Z,12.05
2022-09-26T16:44:34.429Z,12.57
2022-09-26T16:47:07.345Z,12.68
2022-09-26T16:49:47.225Z,11.68
2022-09-26T16:52:26.903Z,12.25
2022-09-26T16:54:56.165Z,12.43
2022-09-26T16:57:26.769Z,11.13
2022-09-26T17:00:15.086Z,11.38
2022-09-26T17:02:44.081Z,10.75
2022-09-26T17:05:18.701Z,10.15
2022-09-26T17:07:47.873Z,10.93
2022-09-26T17:10:16.802Z,10.23
2022-09-26T17:12:51.521Z,11.10
2022-09-26T17:15:26.376Z,10.40
2022-09-26T17:17:57.038Z,9.57
2022-09-26T17:20:25.867Z,9.55
2022-09-26T17:22:54.809Z,10.30
2022-09-26T17:25:25.271Z,9.30
2022-09-26T17:27:57.746Z,8.50
2022-09-26T17:30:25.841Z,9.00
2022-09-26T17:32:55.687Z,8.05
2022-09-26T17:35:29.592Z,8.15
2022-09-26T17:37:57.912Z,8.88
2022-09-26T17:40:27.606Z,8.20
2022-09-26T17:42:57.422Z,8.75
2022-09-26T17:45:29.257Z,9.27
2022-09-26T17:48:02.387Z,8.52
2022-09-26T17:50:32.770Z,8.40
2022-09-26T17:53:03.351Z,8.68
2022-09-26T17:55:32.126Z,9.30
2022-09-26T17:58:00.334Z,9.32
2022-09-26T18:00:32.937Z,9.45
2022-09-26T18:03:04.973Z,9.57
2022-09-26T18:05:35.944Z,10.25
2022-09-26T18:08:10.288Z,10.07
2022-09-26T18:10:43.141Z,10.15
2022-09-26T18:13:15.476Z,10.95
2022-09-26T18:15:43.610Z,10.63
2022-09-26T18:18:15.646Z,11.10
2022-09-26T18:20:45.566Z,8.32
2022-09-26T18:23:18.375Z,9.02
2022-09-26T18:25:47.724Z,7.15
2022-09-26T18:28:19.998Z,7.20
2022-09-26T18:30:53.286Z,6.60
2022-09-26T18:33:25.599Z,5.50
2022-09-26T18:35:53.679Z,5.13
2022-09-26T18:38:22.146Z,5.00
2022-09-26T18:40:55.315Z,4.78
2022-09-26T18:43:25.349Z,4.07
2022-09-26T18:45:53.715Z,4.07
2022-09-26T18:48:27.023Z,3.97
2022-09-26T18:50:57.637Z,3.67
2022-09-26T18:53:29.577Z,3.70
2022-09-26T18:56:20.474Z,4.07
2022-09-26T18:58:48.824Z,4.25
2022-09-26T19:01:22.944Z,4.07
2022-09-26T19:03:52.849Z,4.60
2022-09-26T19:06:23.356Z,4.70
2022-09-26T19:08:53.070Z,4.63
2022-09-26T19:11:24.049Z,5.18
2022-09-26T19:13:54.642Z,5.30
2022-09-26T19:16:23.596Z,5.57
2022-09-26T19:18:53.228Z,5.30
2022-09-26T19:21:29.602Z,6.20
2022-09-26T19:23:59.627Z,6.78
2022-09-26T19:26:31.252Z,7.85
2022-09-26T19:29:00.474Z,8.30
2022-09-26T19:31:31.506Z,9.20
2022-09-26T19:34:01.267Z,9.25
2022-09-26T19:36:29.245Z,9.50
2022-09-26T19:38:57.296Z,8.70
2022-09-26T19:41:25.276Z,9.48
2022-09-26T19:43:53.294Z,9.60
2022-09-26T19:46:27.366Z,9.88
2022-09-26T19:48:55.663Z,10.18
2022-09-26T19:51:27.288Z,10.68
2022-09-26T19:53:55.619Z,9.70
2022-09-26T19:56:26.561Z,10.07
2022-09-26T19:58:54.662Z,9.18
2022-09-26T20:01:25.466Z,11.98
2022-09-26T20:03:53.659Z,10.18
2022-09-26T20:06:27.044Z,9.75
2022-09-26T20:09:23.275Z,9.32
2022-09-26T20:11:52.528Z,10.13
2022-09-26T20:14:26.236Z,10.45
2022-09-26T20:16:57.168Z,10.13
2022-09-26T20:19:34.453Z,10.38
2022-09-26T20:22:07.293Z,11.38
2022-09-26T20:24:38.062Z,10.95
2022-09-26T20:27:08.424Z,10.65
2022-09-26T20:29:51.129Z,11.18
2022-09-26T20:32:19.332Z,10.35
2022-09-26T20:34:48.325Z,11.35
2022-09-26T20:37:19.888Z,11.52
2022-09-26T20:39:48.404Z,11.52
2022-09-26T20:42:19.994Z,11.25
2022-09-26T20:44:49.814Z,11.45
2022-09-26T20:47:21.241Z,11.38
2022-09-26T20:49:54.292Z,12.02
2022-09-26T20:52:25.096Z,12.55
2022-09-26T20:54:53.873Z,12.30
2022-09-26T20:57:22.345Z,12.85
2022-09-26T20:59:51.080Z,12.48
2022-09-26T21:02:29.910Z,13.52
2022-09-26T21:05:00.391Z,13.77
2022-09-26T21:07:32.897Z,13.95
2022-09-26T21:10:01.045Z,13.98
2022-09-26T21:12:29.025Z,13.70
2022-09-26T21:14:57.060Z,13.40
2022-09-26T21:17:29.141Z,14.45
2022-09-26T21:19:57.510Z,13.75
2022-09-26T21:22:50.530Z,13.50
2022-09-26T21:25:20.676Z,14.10
2022-09-26T21:27:50.575Z,14.05
2022-09-26T21:30:18.970Z,13.85
2022-09-26T21:32:49.805Z,14.65
2022-09-26T21:35:20.539Z,14.48
2022-09-26T21:37:53.061Z,14.63
2022-09-26T21:40:22.763Z,13.80
2022-09-26T21:42:53.098Z,15.10
2022-09-26T21:45:26.555Z,16.02
2022-09-26T21:47:55.763Z,15.30
2022-09-26T21:50:26.377Z,15.13
2022-09-26T21:53:00.105Z,15.98
2022-09-26T21:55:33.657Z,15.68
2022-09-26T21:58:04.582Z,14.90
2022-09-26T22:00:32.827Z,16.17
2022-09-26T22:03:03.651Z,16.40
2022-09-26T22:05:32.020Z,17.08
2022-09-26T22:08:01.900Z,16.27
2022-09-26T22:10:30.347Z,17.63
2022-09-26T22:12:58.635Z,16.83
2022-09-26T22:15:26.824Z,17.08
2022-09-26T22:17:55.154Z,17.80
2022-09-26T22:20:23.581Z,16.73
2022-09-26T22:22:51.648Z,16.60
2022-09-26T22:25:21.045Z,16.60
2022-09-26T22:27:49.096Z,16.27
2022-09-26T22:30:17.262Z,15.57
2022-09-26T22:32:45.242Z,13.95
2022-09-26T22:35:13.249Z,15.27
2022-09-26T22:37:41.191Z,14.75
2022-09-26T22:40:10.272Z,15.38
2022-09-26T22:42:42.352Z,13.63
2022-09-26T22:45:11.597Z,13.13
2022-09-26T22:47:42.451Z,14.35
2022-09-26T22:50:10.803Z,13.70
2022-09-26T22:52:38.804Z,14.23
2022-09-26T22:55:08.313Z,14.07
2022-09-26T22:57:36.295Z,13.45
2022-09-26T23:00:06.704Z,14.88
2022-09-26T23:02:38.153Z,13.63
2022-09-26T23:05:06.802Z,14.30
2022-09-26T23:07:34.807Z,15.30
2022-09-26T23:10:05.924Z,15.27
2022-09-26T23:12:33.950Z,14.82
2022-09-26T23:15:01.999Z,15.90
2022-09-26T23:17:32.549Z,15.68
2022-09-26T23:20:00.516Z,16.85
2022-09-26T23:22:31.713Z,17.60
2022-09-26T23:24:59.747Z,19.58
2022-09-26T23:27:28.627Z,20.23
2022-09-26T23:29:56.732Z,20.27
2022-09-26T23:32:24.655Z,22.02
2022-09-26T23:34:54.047Z,21.42
2022-09-26T23:37:22.086Z,21.15
2022-09-26T23:39:50.433Z,21.52
2022-09-26T23:42:18.409Z,22.80
2022-09-26T23:44:46.601Z,24.75
2022-09-26T23:47:14.561Z,22.63
2022-09-26T23:49:42.645Z,25.00
2022-09-26T23:52:11.974Z,24.42
2022-09-26T23:54:39.984Z,25.15
2022-09-26T23:57:07.926Z,25.17
2022-09-26T23:59:36.072Z,25.92
